Flight Track Log - Related Links

Times and Time Zones

All times are in EDT time to prevent confusion due to time zone crossing. See the N717AN flight status page for this flight to view local times or setup timezone preferences in your user account.


Time Position Orientation Groundspeed Altitude Reporting Facility
EDT Latitude Longitude Course Direction KTS MPH feet Rate Location/Type
Sat 05:24:37 AM 51.4650 -0.4290 89° East 192 221 800  Level FlightAware ADS-B
Sat 05:24:52 AM 51.4660 -0.4070 86° East 194 223 1,400 2,276 Climbing FlightAware ADS-B
Sat 05:25:06 AM 51.4715 -0.3873 66° East 202 232 1,900 1,714 Climbing FlightAware ADS-B
Sat 05:25:13 AM 51.4756 -0.3788 52° Northeast 211 243 2,000 909 Climbing FlightAware ADS-B
Sat 05:25:39 AM 51.4939 -0.3441 50° Northeast 243 280 2,400 1,733 Climbing FlightAware ADS-B
Sat 05:25:58 AM 51.5086 -0.3164 50° Northeast 258 297 3,300 2,500 Climbing FlightAware ADS-B
Sat 05:26:15 AM 51.5218 -0.2907 50° Northeast 265 305 3,900 2,348 Climbing FlightAware ADS-B
Sat 05:26:21 AM 51.5257 -0.2808 58° Northeast 269 310 4,200 2,308 Climbing FlightAware ADS-B
Sat 05:26:28 AM 51.5300 -0.2697 58° Northeast 272 313 4,400 2,308 Climbing FlightAware ADS-B
Sat 05:26:34 AM 51.5348 -0.2596 53° Northeast 274 315 4,700 2,727 Climbing FlightAware ADS-B
Sat 05:26:39 AM 51.5395 -0.2518 46° Northeast 276 318 4,900 2,400 Climbing FlightAware ADS-B
Sat 05:26:44 AM 51.5446 -0.2455 38° Northeast 278 320 5,100 1,800 Climbing FlightAware ADS-B
Sat 05:26:49 AM 51.5493 -0.2411 30° Northeast 283 326 5,200 1,500 Climbing FlightAware ADS-B
Sat 05:26:52 AM 51.5538 -0.2380 23° Northeast 285 328 5,300 2,250 Climbing FlightAware ADS-B
Sat 05:26:57 AM 51.5595 -0.2352 17° North 287 330 5,500 2,000 Climbing FlightAware ADS-B
Sat 05:27:01 AM 51.5657 -0.2337 North 289 333 5,600 1,500 Climbing FlightAware ADS-B
Sat 05:27:05 AM 51.5705 -0.2334 North 291 335 5,700 1,500 Climbing FlightAware ADS-B
Sat 05:27:09 AM 51.5759 -0.2339 356° North 290 334 5,800 2,000 Climbing FlightAware ADS-B
Sat 05:27:14 AM 51.5830 -0.2358 350° North 289 333 6,000 1,385 Climbing FlightAware ADS-B
Sat 05:27:22 AM 51.5930 -0.2398 346° North 285 328 6,100 240 Climbing FlightAware ADS-B
Sat 05:27:39 AM 51.6138 -0.2492 344° North 284 327 6,100  Level FlightAware ADS-B
Sat 05:27:56 AM 51.6355 -0.2594 344° North 283 326 6,100  Level FlightAware ADS-B
Sat 05:28:06 AM 51.6484 -0.2657 343° North 283 326 6,100  Level FlightAware ADS-B
Sat 05:28:14 AM 51.6580 -0.2718 338° Northwest 284 327 6,100  Level FlightAware ADS-B
Sat 05:28:18 AM 51.6618 -0.2748 334° Northwest 284 327 6,100  Level FlightAware ADS-B
Sat 05:28:33 AM 51.6795 -0.2914 330° Northwest 281 323 6,100 364 Level FlightAware ADS-B
Sat 05:28:51 AM 51.6986 -0.3102 329° Northwest 278 320 6,300 1,091 Climbing FlightAware ADS-B
Sat 05:29:06 AM 51.7154 -0.3263 329° Northwest 283 326 6,700 2,438 Climbing FlightAware ADS-B
Sat 05:29:23 AM 51.7346 -0.3441 330° Northwest 281 323 7,600 2,909 Climbing FlightAware ADS-B
Sat 05:29:39 AM 51.7535 -0.3607 331° Northwest 282 325 8,300 2,250 Climbing FlightAware ADS-B
Sat 05:29:55 AM 51.7718 -0.3768 331° Northwest 292 336 8,800 2,129 Climbing FlightAware ADS-B
Sat 05:30:10 AM 51.7899 -0.3929 331° Northwest 296 341 9,400 2,077 Climbing FlightAware ADS-B
Sat 05:30:47 AM 51.8344 -0.4345 330° Northwest 299 344 10,600 1,765 Climbing FlightAware ADS-B
Sat 05:31:18 AM 51.8747 -0.4726 330° Northwest 341 392 11,400 1,532 Climbing FlightAware ADS-B
Sat 05:31:34 AM 51.8973 -0.4956 328° Northwest 356 410 11,800 1,846 Climbing FlightAware ADS-B
Sat 05:31:44 AM 51.9115 -0.5112 326° Northwest 361 415 12,200 1,826 Climbing FlightAware ADS-B
Sat 05:31:57 AM 51.9293 -0.5293 328° Northwest 374 430 12,500 1,674 Climbing FlightAware ADS-B
Sat 05:32:27 AM 51.9777 -0.5727 331° Northwest 400 460 13,400 2,066 Climbing FlightAware ADS-B
Sat 05:32:58 AM 52.0298 -0.6166 333° Northwest 414 476 14,600 2,286 Climbing FlightAware ADS-B
Sat 05:33:30 AM 52.0844 -0.6621 333° Northwest 428 493 15,800 2,423 Climbing FlightAware ADS-B
Sat 05:33:50 AM 52.1192 -0.6907 333° Northwest 432 497 16,700 2,353 Climbing FlightAware ADS-B
Sat 05:34:21 AM 52.1749 -0.7381 332° Northwest 443 510 17,800 2,262 Climbing FlightAware ADS-B
Sat 05:34:51 AM 52.2302 -0.7843 333° Northwest 449 517 19,000 2,100 Climbing FlightAware ADS-B
Sat 05:35:21 AM 52.2877 -0.8319 333° Northwest 463 533 19,900 1,742 Climbing FlightAware ADS-B
Sat 05:35:53 AM 52.3502 -0.8843 333° Northwest 477 549 20,800 1,938 Climbing FlightAware ADS-B
Sat 05:36:26 AM 52.4151 -0.9392 333° Northwest 483 556 22,000 2,118 Climbing FlightAware ADS-B
Sat 05:37:01 AM 52.4842 -0.9976 333° Northwest 489 563 23,200 1,970 Climbing FlightAware ADS-B
Sat 05:37:33 AM 52.5493 -1.0530 333° Northwest 495 570 24,200 1,846 Climbing FlightAware ADS-B
Sat 05:38:06 AM 52.6162 -1.1101 333° Northwest 500 575 25,200 1,905 Climbing FlightAware ADS-B
Sat 05:38:36 AM 52.6778 -1.1629 333° Northwest 502 578 26,200 1,672 Climbing FlightAware ADS-B
Sat 05:39:07 AM 52.7418 -1.2180 332° Northwest 510 587 26,900 1,200 Climbing FlightAware ADS-B
Sat 05:39:41 AM 52.8130 -1.2790 333° Northwest 523 602 27,500 1,200 Climbing FlightAware ADS-B
Sat 05:39:52 AM 52.8375 -1.3005 332° Northwest 520 598 27,800 1,429 Climbing FlightAware ADS-B
Sat 05:40:23 AM 52.9043 -1.3584 332° Northwest 490 564 28,500 1,535 Climbing FlightAware UK
Sat 05:40:35 AM 52.9316 -1.3820 332° Northwest 527 606 28,900 1,333 Climbing FlightAware ADS-B
Sat 05:41:08 AM 53.0028 -1.4441 332° Northwest 537 618 29,500 1,514 Climbing FlightAware ADS-B
Sat 05:42:22 AM 53.1684 -1.5890 332° Northwest 541 623 31,600 1,415 Climbing FlightAware ADS-B
Sat 05:42:54 AM 53.2382 -1.6505 332° Northwest 542 624 32,000 358 Climbing FlightAware ADS-B
Sat 05:43:29 AM 53.3146 -1.7181 332° Northwest 488 562 32,000  Level FlightAware UK
Sat 05:43:41 AM 53.3410 -1.7410 332° Northwest 540 621 32,000  Level FlightAware ADS-B
Sat 05:44:19 AM 53.4264 -1.8177 332° Northwest 540 621 32,000  Level FlightAware ADS-B
Sat 05:44:55 AM 53.5056 -1.8884 332° Northwest 540 621 32,000  Level FlightAware ADS-B
Sat 05:45:37 AM 53.5966 -1.9702 332° Northwest 539 620 32,000  Level FlightAware ADS-B
Sat 05:46:29 AM 53.7095 -2.0717 332° Northwest 539 620 32,000 -61 Level FlightAware ADS-B
Sat 05:47:16 AM 53.8167 -2.1576 332° Northwest 486 559 31,900  Descending FlightAware UK
Sat 05:47:19 AM 53.8180 -2.1580 332° Northwest 541 623 32,000  Climbing FlightAware ADS-B
Sat 05:47:58 AM 53.9145 -2.2240 332° Northwest 486 559 31,900  Descending FlightAware UK
Sat 05:48:06 AM 53.9280 -2.2330 332° Northwest 544 626 32,000 143 Climbing FlightAware ADS-B
Sat 05:48:40 AM 54.0102 -2.2965 332° Northwest 486 559 32,000  Level FlightAware UK
Sat 05:48:52 AM 54.0360 -2.3180 332° Northwest 538 619 32,000  Level FlightAware ADS-B
Sat 05:49:27 AM 54.1130 -2.3820 334° Northwest 537 618 32,000  Level FlightAware ADS-B
Sat 05:50:13 AM 54.2150 -2.4660 334° Northwest 536 617 32,000  Level FlightAware ADS-B
Sat 05:50:53 AM 54.3070 -2.5430 334° Northwest 536 617 32,000 -74 Level FlightAware ADS-B
Sat 05:51:34 AM 54.3964 -2.6176 334° Northwest 486 559 31,900  Descending FlightAware UK
Sat 05:51:35 AM 54.4000 -2.6200 334° Northwest 535 616 32,000  Climbing FlightAware ADS-B
Sat 05:52:16 AM 54.4894 -2.6961 334° Northwest 486 559 31,900  Descending FlightAware UK
Sat 05:52:18 AM 54.4930 -2.6990 334° Northwest 534 615 32,000 136 Climbing FlightAware ADS-B
Sat 05:53:00 AM 54.5860 -2.7770 334° Northwest 533 613 32,000  Level FlightAware ADS-B
Sat 05:53:42 AM 54.6790 -2.8560 334° Northwest 532 612 32,000  Level FlightAware ADS-B
Sat 05:54:18 AM 54.7580 -2.9220 334° Northwest 532 612 32,000  Level FlightAware ADS-B
Sat 05:54:58 AM 54.8460 -2.9970 334° Northwest 529 609 32,000  Level FlightAware ADS-B
Sat 05:55:42 AM 54.9330 -3.0930 328° Northwest 518 596 32,000  Level FlightAware ADS-B
Sat 05:56:28 AM 55.0160 -3.2110 321° Northwest 509 586 32,000  Level FlightAware ADS-B
Sat 05:57:10 AM 55.0940 -3.3270 320° Northwest 508 585 32,000  Level FlightAware ADS-B
Sat 05:57:53 AM 55.1710 -3.4400 320° Northwest 508 585 32,000 -72 Level FlightAware ADS-B
Sat 05:58:33 AM 55.2438 -3.5509 320° Northwest 484 557 31,900  Descending FlightAware UK
Sat 05:58:35 AM 55.2450 -3.5530 320° Northwest 506 582 32,000 128 Climbing FlightAware ADS-B
Sat 05:59:20 AM 55.3220 -3.6700 319° Northwest 499 574 32,000  Level FlightAware ADS-B
Sat 05:59:54 AM 55.3820 -3.7610 319° Northwest 498 573 32,000 -82 Level FlightAware ADS-B
Sat 06:00:33 AM 55.4545 -3.8723 319° Northwest 484 557 31,900  Descending FlightAware UK
Sat 06:00:36 AM 55.4480 -3.8620 319° Northwest 503 579 32,000 167 Climbing FlightAware ADS-B
Sat 06:01:09 AM 55.5070 -3.9540 319° Northwest 502 578 32,000  Level FlightAware ADS-B
Sat 06:01:51 AM 55.5907 -4.0820 319° Northwest 490 564 32,000  Level FlightAware UK
Sat 06:01:55 AM 55.5940 -4.0880 319° Northwest 495 570 32,000  Level FlightAware ADS-B
Sat 06:02:31 AM 55.6520 -4.1780 319° Northwest 501 577 32,000  Level FlightAware ADS-B
Sat 06:03:13 AM 55.7320 -4.3020 319° Northwest 503 579 32,000  Level FlightAware ADS-B
Sat 06:04:00 AM 55.8120 -4.4270 319° Northwest 501 577 32,000 -75 Level FlightAware ADS-B
Sat 06:04:33 AM 55.8749 -4.5265 319° Northwest 494 568 31,900  Descending FlightAware UK
Sat 06:04:33 AM 55.8720 -4.5220 319° Northwest 500 575 32,000  Climbing FlightAware ADS-B
Sat 06:05:09 AM 55.9381 -4.6253 319° Northwest 492 566 31,900  Descending FlightAware UK
Sat 06:05:18 AM 55.9480 -4.6390 319° Northwest 500 575 32,000 136 Climbing FlightAware ADS-B
Sat 06:05:53 AM 56.0130 -4.7420 318° Northwest 502 578 32,000  Level FlightAware ADS-B
Sat 06:06:38 AM 56.0910 -4.8640 319° Northwest 501 577 32,000  Level FlightAware ADS-B
Sat 06:07:18 AM 56.1630 -4.9770 319° Northwest 499 574 32,000  Level FlightAware ADS-B
Sat 06:08:03 AM 56.2410 -5.1010 319° Northwest 499 574 32,000  Level FlightAware ADS-B
Sat 06:08:44 AM 56.3110 -5.2140 319° Northwest 499 574 32,000 -143 Level FlightAware ADS-B
Sat 06:08:45 AM 56.3163 -5.2220 319° Northwest 490 564 31,900 -194 Descending FlightAware UK
Sat 06:09:15 AM 56.3685 -5.3058 319° Northwest 492 566 31,900 140 Level FlightAware UK
Sat 06:09:28 AM 56.3900 -5.3390 319° Northwest 501 577 32,000 88 Climbing FlightAware ADS-B
Sat 06:10:23 AM 56.4860 -5.4950 318° Northwest 501 577 32,000 -67 Level FlightAware ADS-B
Sat 06:10:57 AM 56.5466 -5.5934 318° Northwest 490 564 31,900  Descending FlightAware UK
Sat 06:10:58 AM 56.5480 -5.5960 318° Northwest 501 577 32,000 120 Climbing FlightAware ADS-B
Sat 06:11:47 AM 56.6300 -5.7300 318° Northwest 507 583 32,000  Level FlightAware ADS-B
Sat 06:12:27 AM 56.7027 -5.8495 318° Northwest 490 564 32,000  Level FlightAware UK
Sat 06:12:29 AM 56.7050 -5.8530 318° Northwest 507 583 32,000 -267 Level FlightAware ADS-B
Sat 06:13:12 AM 56.7720 -5.9650 318° Northwest 505 581 31,800 -714 Descending FlightAware ADS-B
Sat 06:13:53 AM 56.8480 -6.0960 317° Northwest 500 575 31,000 -632 Descending FlightAware ADS-B
Sat 06:14:28 AM 56.9060 -6.1960 317° Northwest 504 580 31,000 -150 Level FlightAware ADS-B
Sat 06:14:33 AM 56.9175 -6.2153 317° Northwest 492 566 30,900 -146 Descending FlightAware UK
Sat 06:15:09 AM 56.9794 -6.3171 317° Northwest 492 566 30,900 133 Level FlightAware UK
Sat 06:15:18 AM 56.9940 -6.3410 317° Northwest 502 578 31,000 120 Climbing FlightAware ADS-B
Sat 06:15:59 AM 57.0620 -6.4550 318° Northwest 502 578 31,000  Level FlightAware ADS-B
Sat 06:16:38 AM 57.1310 -6.5720 318° Northwest 503 579 31,000 -150 Level FlightAware ADS-B
Sat 06:16:39 AM 57.1332 -6.5758 318° Northwest 492 566 30,900 -194 Descending FlightAware UK
Sat 06:17:09 AM 57.1842 -6.6630 318° Northwest 492 566 30,900 150 Level FlightAware UK
Sat 06:17:19 AM 57.1990 -6.6880 318° Northwest 500 575 31,000 122 Climbing FlightAware ADS-B
Sat 06:17:58 AM 57.2660 -6.8040 317° Northwest 501 577 31,000 -75 Level FlightAware ADS-B
Sat 06:18:39 AM 57.3363 -6.9246 317° Northwest 490 564 30,900  Descending FlightAware UK
Sat 06:18:39 AM 57.3300 -6.9140 317° Northwest 503 579 31,000 200 Climbing FlightAware ADS-B
Sat 06:19:09 AM 57.3872 -7.0126 317° Northwest 490 564 31,000  Level FlightAware UK
Sat 06:19:21 AM 57.4040 -7.0410 317° Northwest 502 578 31,000  Level FlightAware ADS-B
Sat 06:19:52 AM 57.4560 -7.1320 317° Northwest 503 579 31,000  Level FlightAware ADS-B
Sat 06:20:36 AM 57.5320 -7.2650 317° Northwest 495 570 31,000 -128 Level FlightAware ADS-B
Sat 06:20:39 AM 57.5394 -7.2781 317° Northwest 492 566 30,900  Descending FlightAware UK
Sat 06:21:09 AM 57.5898 -7.3666 317° Northwest 490 564 31,000 162 Climbing FlightAware UK
Sat 06:21:16 AM 57.6000 -7.3840 317° Northwest 493 567 31,000  Level FlightAware ADS-B
Sat 06:22:01 AM 57.6750 -7.5160 317° Northwest 492 566 31,000 -72 Level FlightAware ADS-B
Sat 06:22:39 AM 57.7397 -7.6321 317° Northwest 490 564 30,900  Descending FlightAware UK
Sat 06:22:46 AM 57.7500 -7.6500 317° Northwest 493 567 31,000 128 Climbing FlightAware ADS-B
Sat 06:23:26 AM 57.8150 -7.7670 316° Northwest 494 568 31,000  Level FlightAware ADS-B
Sat 06:24:06 AM 57.8820 -7.8880 316° Northwest 496 571 31,000 -77 Level FlightAware ADS-B
Sat 06:24:44 AM 57.9493 -8.0090 316° Northwest 492 566 30,900  Descending FlightAware UK
Sat 06:24:46 AM 57.9500 -8.0100 316° Northwest 495 570 31,000 143 Climbing FlightAware ADS-B
Sat 06:25:26 AM 58.0140 -8.1270 316° Northwest 494 568 31,000  Level FlightAware ADS-B
Sat 06:26:06 AM 58.0830 -8.2520 316° Northwest 494 568 31,000  Level FlightAware ADS-B
Sat 06:26:41 AM 58.1390 -8.3560 316° Northwest 498 573 31,000  Level FlightAware ADS-B
Sat 06:27:20 AM 58.2072 -8.4815 316° Northwest 490 564 31,000  Level FlightAware UK
Sat 06:27:26 AM 58.2140 -8.4950 316° Northwest 497 572 31,000  Level FlightAware ADS-B
Sat 06:28:06 AM 58.2790 -8.6150 316° Northwest 498 573 31,000  Level FlightAware ADS-B
Sat 06:28:48 AM 58.3460 -8.7390 316° Northwest 497 572 31,000  Level FlightAware ADS-B
Sat 06:28:50 AM 58.3546 -8.7558 316° Northwest 492 566 31,000 -188 Level FlightAware UK
Sat 06:29:20 AM 58.4036 -8.8479 316° Northwest 490 564 30,900  Descending FlightAware UK
Sat 06:29:31 AM 58.4180 -8.8760 316° Northwest 496 571 31,000 128 Climbing FlightAware ADS-B
Sat 06:30:07 AM 58.4720 -8.9770 316° Northwest 496 571 31,000  Level FlightAware ADS-B
Sat 06:30:56 AM 58.5570 -9.1390 315° West 497 572 31,000  Level FlightAware ADS-B
Sat 06:31:52 AM 58.6480 -9.3130 315° West 499 574 31,000  Level FlightAware ADS-B
Sat 06:32:33 AM 58.7130 -9.4390 315° West 499 574 31,000  Level FlightAware ADS-B
Sat 06:33:13 AM 58.7800 -9.5670 315° West 490 564 31,000  Level FlightAware ADS-B
Sat 06:33:58 AM 58.8530 -9.7100 315° West 489 563 31,000  Level FlightAware ADS-B
Sat 06:34:38 AM 58.9160 -9.8350 314° West 489 563 31,000  Level FlightAware ADS-B
Sat 06:35:18 AM 58.9780 -9.9590 314° West 495 570 31,000  Level FlightAware ADS-B
Sat 06:35:58 AM 59.0280 -10.1110 303° West 494 568 31,000  Level FlightAware ADS-B
Sat 06:36:43 AM 59.0720 -10.2850 296° West 494 568 31,000  Level FlightAware ADS-B
Sat 06:37:28 AM 59.1170 -10.4710 295° West 494 568 31,000  Level FlightAware ADS-B
Sat 06:38:08 AM 59.1580 -10.6350 296° West 495 570 31,000  Level FlightAware ADS-B
Sat 06:39:03 AM 59.2080 -10.8390 296° West 492 566 31,000  Level FlightAware ADS-B
Sat 06:39:43 AM 59.2590 -11.0030 301° West 490 564 31,000  Level FlightAware ADS-B
Sat 06:40:38 AM 59.3160 -11.2170 298° West 491 565 31,000  Level FlightAware ADS-B
Sat 06:41:28 AM 59.3660 -11.4230 296° West 497 572 31,000  Level FlightAware ADS-B
Sat 06:42:08 AM 59.4040 -11.5870 295° West 498 573 31,000  Level FlightAware ADS-B
Sat 06:42:46 AM 59.4330 -11.7120 295° West 497 572 31,000  Level FlightAware ADS-B
Sat 06:43:34 AM 59.4710 -11.8800 294° West 497 572 31,000  Level FlightAware ADS-B
Sat 06:44:10 AM 59.5000 -12.0070 294° West 497 572 31,000  Level FlightAware ADS-B
Sat 06:44:58 AM 59.5380 -12.1760 294° West 497 572 31,000  Level FlightAware ADS-B
Sat 06:45:34 AM 59.5660 -12.3030 294° West 497 572 31,000  Level FlightAware ADS-B
Sat 06:46:23 AM 59.6050 -12.4760 294° West 497 572 31,000  Level FlightAware ADS-B
Sat 06:46:59 AM 59.6340 -12.6030 294° West 497 572 31,000  Level FlightAware ADS-B
Sat 06:47:59 AM 59.6820 -12.8150 294° West 497 572 31,000  Level FlightAware ADS-B
Sat 06:48:37 AM 59.7120 -12.9490 294° West 497 572 31,000  Level FlightAware ADS-B
Sat 06:49:37 AM 59.7590 -13.1620 294° West 497 572 31,000  Level FlightAware ADS-B
Sat 06:50:25 AM 59.7980 -13.3320 295° West 497 572 31,000  Level FlightAware ADS-B
Sat 06:51:01 AM 59.8260 -13.4600 294° West 497 572 31,000  Level FlightAware ADS-B
Sat 06:51:49 AM 59.8640 -13.6310 294° West 497 572 31,000  Level FlightAware ADS-B
Sat 06:54:00 AM 59.9272 -14.1971 283° West  Level Estimated
Sat 06:55:00 AM 59.9553 -14.4571 282° West  Level Estimated
Sat 06:56:00 AM 59.9829 -14.7176 282° West  Level Estimated
Sat 06:57:00 AM 60.0100 -14.9784 282° West  Level Estimated
Sat 06:58:00 AM 60.0366 -15.2397 282° West  Level Estimated
Sat 06:59:00 AM 60.0626 -15.5014 281° West  Level Estimated
Sat 07:00:00 AM 60.0882 -15.7636 281° West  Level Estimated
Sat 07:01:00 AM 60.1132 -16.0261 281° West  Level Estimated
Sat 07:02:00 AM 60.1377 -16.2890 281° West  Level Estimated
Sat 07:03:00 AM 60.1617 -16.5523 280° West  Level Estimated
Sat 07:04:00 AM 60.1852 -16.8160 280° West  Level Estimated
Sat 07:05:00 AM 60.2081 -17.0801 280° West  Level Estimated
Sat 07:06:00 AM 60.2305 -17.3445 280° West  Level Estimated
Sat 07:07:00 AM 60.2524 -17.6093 280° West  Level Estimated
Sat 07:08:00 AM 60.2738 -17.8744 279° West  Level Estimated
Sat 07:09:00 AM 60.2946 -18.1399 279° West  Level Estimated
Sat 07:10:00 AM 60.3149 -18.4057 279° West  Level Estimated
Sat 07:10:55 AM 60.8700 -19.0550 279° West 507 583 31,000  Level FlightAware ADS-B
Sat 07:11:00 AM 60.3347 -18.6718 279° West  Level Estimated
Sat 07:11:38 AM 60.8970 -19.2240 288° West 507 583 31,000  Level FlightAware ADS-B
Sat 07:12:34 AM 60.9350 -19.4630 288° West 507 583 31,000  Level FlightAware ADS-B
Sat 07:13:14 AM 60.9590 -19.6190 288° West 507 583 31,000  Level FlightAware ADS-B
Sat 07:14:03 AM 60.9890 -19.8110 288° West 507 583 31,000  Level FlightAware ADS-B
Sat 07:14:39 AM 61.0370 -20.0720 291° West 507 583 31,000  Level FlightAware ADS-B
Sat 07:15:18 AM 61.0780 -20.2400 297° West 506 582 31,000  Level FlightAware ADS-B
Sat 07:15:52 AM 61.1090 -20.3640 297° West 506 582 31,000  Level FlightAware ADS-B
Sat 07:16:41 AM 61.1680 -20.5990 298° West 508 585 31,000  Level FlightAware ADS-B
Sat 07:17:21 AM 61.2090 -20.7710 296° West 508 585 31,000  Level FlightAware ADS-B
Sat 07:17:56 AM 61.2460 -20.9230 297° West 508 585 31,000  Level FlightAware ADS-B
Sat 07:18:52 AM 61.3030 -21.1600 297° West 508 585 31,000  Level FlightAware ADS-B
Sat 07:19:38 AM 61.3480 -21.3490 296° West 507 583 31,000  Level FlightAware ADS-B
Sat 07:20:17 AM 61.3930 -21.5390 296° West 507 583 31,000  Level FlightAware ADS-B
Sat 07:21:02 AM 61.4390 -21.7360 296° West 508 585 31,000  Level FlightAware ADS-B
Sat 07:21:39 AM 61.4760 -21.8990 295° West 508 585 31,000  Level FlightAware ADS-B
Sat 07:22:23 AM 61.5210 -22.0950 296° West 509 586 31,000  Level FlightAware ADS-B
Sat 07:23:07 AM 61.5660 -22.2890 296° West 510 587 31,000  Level FlightAware ADS-B
Sat 07:23:47 AM 61.6060 -22.4700 295° West 511 588 31,000  Level FlightAware ADS-B
Sat 07:24:31 AM 61.6500 -22.6650 295° West 513 590 31,000  Level FlightAware ADS-B
Sat 07:25:10 AM 61.6890 -22.8410 295° West 515 593 31,000  Level FlightAware ADS-B
Sat 07:25:53 AM 61.7320 -23.0370 295° West 516 594 31,000  Level FlightAware ADS-B
Sat 07:26:36 AM 61.7750 -23.2330 295° West 517 595 31,000  Level FlightAware ADS-B
Sat 07:27:19 AM 61.8170 -23.4310 294° West 519 597 31,000  Level FlightAware ADS-B
Sat 07:27:56 AM 61.8520 -23.5950 294° West 520 598 31,000  Level FlightAware ADS-B
Sat 07:28:40 AM 61.8970 -23.8060 294° West 522 601 31,000  Level FlightAware ADS-B
Sat 07:29:19 AM 61.9360 -23.9900 294° West 523 602 31,000  Level FlightAware ADS-B
Sat 07:29:59 AM 61.9750 -24.1800 294° West 524 603 31,000  Level FlightAware ADS-B
Sat 07:30:40 AM 62.0140 -24.3700 294° West 522 601 31,000  Level FlightAware ADS-B
Sat 07:31:19 AM 62.0520 -24.5540 294° West 519 597 31,000  Level FlightAware ADS-B
Sat 07:31:59 AM 62.0900 -24.7410 294° West 517 595 31,000  Level FlightAware ADS-B
Sat 07:32:41 AM 62.1290 -24.9370 293° West 515 593 31,000  Level FlightAware ADS-B
Sat 07:33:21 AM 62.1660 -25.1220 293° West 514 592 31,000  Level FlightAware ADS-B
Sat 07:34:04 AM 62.2050 -25.3230 293° West 511 588 31,000  Level FlightAware ADS-B
Sat 07:34:44 AM 62.2420 -25.5100 293° West 511 588 31,000  Level FlightAware ADS-B
Sat 07:35:27 AM 62.2800 -25.7110 292° West 511 588 31,000  Level FlightAware ADS-B
Sat 07:36:11 AM 62.3200 -25.9180 293° West 510 587 31,000  Level FlightAware ADS-B
Sat 07:36:46 AM 62.3490 -26.0740 292° West 512 589 31,000  Level FlightAware ADS-B
Sat 07:37:24 AM 62.3800 -26.2360 292° West 512 589 31,000  Level FlightAware ADS-B
Sat 07:38:12 AM 62.4160 -26.4300 292° West 512 589 31,000  Level FlightAware ADS-B
Sat 07:38:36 AM 62.4340 -26.5270 292° West 512 589 31,000  Level FlightAware ADS-B
Sat 07:39:27 AM 62.4910 -26.8430 291° West 512 589 31,000  Level FlightAware ADS-B
Sat 07:40:08 AM 62.5260 -27.0340 292° West 512 589 31,000  Level FlightAware ADS-B
Sat 07:40:51 AM 62.5620 -27.2390 291° West 514 592 31,000  Level FlightAware ADS-B
Sat 07:41:32 AM 62.5970 -27.4390 291° West 516 594 31,000  Level FlightAware ADS-B
Sat 07:42:13 AM 62.6320 -27.6350 291° West 516 594 31,000  Level FlightAware ADS-B
Sat 07:42:57 AM 62.6690 -27.8500 291° West 516 594 31,000  Level FlightAware ADS-B
Sat 07:43:45 AM 62.7090 -28.0840 291° West 517 595 31,000  Level FlightAware ADS-B
Sat 07:44:27 AM 62.7440 -28.2900 290° West 518 596 31,000  Level FlightAware ADS-B
Sat 07:45:07 AM 62.7770 -28.4880 290° West 519 597 31,000  Level FlightAware ADS-B
Sat 07:45:44 AM 62.8060 -28.6680 289° West 519 597 31,000  Level FlightAware ADS-B
Sat 07:46:24 AM 62.8380 -28.8610 290° West 520 598 31,000  Level FlightAware ADS-B
Sat 07:47:07 AM 62.8730 -29.0780 290° West 520 598 31,000  Level FlightAware ADS-B
Sat 07:47:44 AM 62.9020 -29.2560 290° West 521 600 31,000  Level FlightAware ADS-B
Sat 07:48:25 AM 62.9340 -29.4620 289° West 522 601 31,000  Level FlightAware ADS-B
Sat 07:49:09 AM 62.9690 -29.6870 289° West 524 603 31,000  Level FlightAware ADS-B
Sat 07:49:49 AM 63.0010 -29.8900 289° West 524 603 31,000  Level FlightAware ADS-B
Sat 07:50:40 AM 63.0350 -30.1170 288° West 525 604 31,000  Level FlightAware ADS-B
Sat 07:51:29 AM 63.0660 -30.3290 288° West 525 604 31,000  Level FlightAware ADS-B
Sat 07:52:05 AM 63.0890 -30.4850 288° West 525 604 31,000  Level FlightAware ADS-B
Sat 07:52:54 AM 63.1200 -30.6980 288° West 525 604 31,000  Level FlightAware ADS-B
Sat 07:53:30 AM 63.1430 -30.8540 288° West 525 604 31,000  Level FlightAware ADS-B
Sat 07:54:18 AM 63.1740 -31.0630 288° West 525 604 31,000  Level FlightAware ADS-B
Sat 07:54:54 AM 63.1960 -31.2200 287° West 525 604 31,000  Level FlightAware ADS-B
Sat 07:55:42 AM 63.2270 -31.4290 288° West 525 604 31,000  Level FlightAware ADS-B
Sat 07:56:18 AM 63.2500 -31.5860 288° West 525 604 31,000  Level FlightAware ADS-B
Sat 07:57:07 AM 63.2810 -31.8000 288° West 525 604 31,000  Level FlightAware ADS-B
Sat 07:57:43 AM 63.3040 -31.9570 288° West 525 604 31,000  Level FlightAware ADS-B
Sat 07:58:29 AM 63.3330 -32.1580 288° West 525 604 31,000  Level FlightAware ADS-B
Sat 07:59:05 AM 63.3560 -32.3160 288° West 525 604 31,000  Level FlightAware ADS-B
Sat 07:59:53 AM 63.3870 -32.5260 288° West 525 604 31,000  Level FlightAware ADS-B
Sat 08:01:00 AM 63.0000 -30.0000 287° West 513 590 31,000  Level ETMS Enhanced Traffic Management System
Sat 08:02:00 AM 63.3559 -33.1549 264° West  Level Estimated
Sat 08:03:00 AM 63.3403 -33.4515 263° West  Level Estimated
Sat 08:04:00 AM 63.3241 -33.7478 263° West  Level Estimated
Sat 08:05:00 AM 63.3072 -34.0438 263° West  Level Estimated
Sat 08:06:00 AM 63.2897 -34.3394 263° West  Level Estimated
Sat 08:07:00 AM 63.6181 -35.2256 282° West 513 590 31,000  Level FlightAware Transoceanic
Sat 08:08:00 AM 63.6484 -35.5397 282° West 513 590 31,000  Level FlightAware Transoceanic
Sat 08:09:00 AM 63.6781 -35.8544 282° West 513 590 31,000  Level FlightAware Transoceanic
Sat 08:10:00 AM 63.7070 -36.1698 282° West 513 590 31,000  Level FlightAware Transoceanic
Sat 08:11:00 AM 63.7353 -36.4858 281° West 513 590 31,000  Level FlightAware Transoceanic
Sat 08:12:00 AM 63.7629 -36.8024 281° West 513 590 31,000  Level FlightAware Transoceanic
Sat 08:13:00 AM 63.7897 -37.1197 281° West 513 590 31,000  Level FlightAware Transoceanic
Sat 08:14:00 AM 63.8159 -37.4375 280° West 513 590 31,000  Level FlightAware Transoceanic
Sat 08:15:00 AM 63.8414 -37.7559 280° West 513 590 31,000  Level FlightAware Transoceanic
Sat 08:16:00 AM 63.8662 -38.0749 280° West 513 590 31,000  Level FlightAware Transoceanic
Sat 08:17:00 AM 63.8903 -38.3945 280° West 513 590 31,000  Level FlightAware Transoceanic
Sat 08:18:00 AM 63.9136 -38.7145 279° West 513 590 31,000  Level FlightAware Transoceanic
Sat 08:19:00 AM 63.9363 -39.0352 279° West 513 590 31,000  Level FlightAware Transoceanic
Sat 08:20:00 AM 63.9582 -39.3563 279° West 513 590 31,000  Level FlightAware Transoceanic
Sat 08:21:00 AM 63.9795 -39.6779 278° West 513 590 31,000  Level FlightAware Transoceanic
Sat 08:22:00 AM 63.9481 -39.9746 257° West  Level Estimated
Sat 08:23:00 AM 63.9160 -40.2712 256° West  Level Estimated
Sat 08:24:00 AM 63.8833 -40.5671 256° West  Level Estimated
Sat 08:25:00 AM 63.8501 -40.8624 256° West  Level Estimated
Sat 08:25:00 AM 64.0000 -40.0000 274° West 492 566 31,000  Level ETMS Enhanced Traffic Management System
Sat 08:26:00 AM 63.8162 -41.1569 256° West  Level Estimated
Sat 08:27:00 AM 63.7817 -41.4507 255° West  Level Estimated
Sat 08:28:00 AM 63.7467 -41.7438 255° West  Level Estimated
Sat 08:29:00 AM 63.7110 -42.0361 255° West  Level Estimated
Sat 08:30:00 AM 63.6748 -42.3277 254° West  Level Estimated
Sat 08:31:00 AM 64.0695 -42.8089 272° West 492 566 31,000  Level FlightAware Transoceanic
Sat 08:32:00 AM 64.0739 -43.1217 272° West 492 566 31,000  Level FlightAware Transoceanic
Sat 08:33:00 AM 64.0776 -43.4346 271° West 492 566 31,000  Level FlightAware Transoceanic
Sat 08:34:00 AM 64.0806 -43.7476 271° West 492 566 31,000  Level FlightAware Transoceanic
Sat 08:35:00 AM 64.0829 -44.0606 271° West 492 566 31,000  Level FlightAware Transoceanic
Sat 08:36:00 AM 64.0846 -44.3737 271° West 492 566 31,000  Level FlightAware Transoceanic
Sat 08:37:00 AM 64.0856 -44.6869 270° West 492 566 31,000  Level FlightAware Transoceanic
Sat 08:38:00 AM 64.0860 -45.0000 270° West 492 566 31,000  Level FlightAware Transoceanic
Sat 08:39:00 AM 64.0856 -45.3131 270° West 492 566 31,000  Level FlightAware Transoceanic
Sat 08:40:00 AM 64.0846 -45.6263 269° West 492 566 31,000  Level FlightAware Transoceanic
Sat 08:41:00 AM 64.0829 -45.9394 269° West 492 566 31,000  Level FlightAware Transoceanic
Sat 08:42:00 AM 64.0806 -46.2524 269° West 492 566 31,000  Level FlightAware Transoceanic
Sat 08:43:00 AM 64.0776 -46.5654 269° West 492 566 31,000  Level FlightAware Transoceanic
Sat 08:44:00 AM 64.0739 -46.8783 268° West 492 566 31,000  Level FlightAware Transoceanic
Sat 08:45:00 AM 64.0695 -47.1911 268° West 492 566 31,000  Level FlightAware Transoceanic
Sat 08:46:00 AM 64.0645 -47.5039 268° West 492 566 31,000  Level FlightAware Transoceanic
Sat 08:47:00 AM 64.0587 -47.8164 267° West 492 566 31,000  Level FlightAware Transoceanic
Sat 08:48:00 AM 64.0524 -48.1289 267° West 492 566 31,000  Level FlightAware Transoceanic
Sat 08:49:00 AM 64.0453 -48.4412 267° West 492 566 31,000  Level FlightAware Transoceanic
Sat 08:49:40 AM 64.0500 -48.6167 246° West 490 564 31,000  Level Gander Center
Sat 08:50:00 AM 64.0376 -48.7534 267° West 492 566 31,000  Level FlightAware Transoceanic
Sat 08:51:00 AM 64.0292 -49.0653 266° West 492 566 31,000  Level FlightAware Transoceanic
Sat 08:52:00 AM 64.0201 -49.3771 266° West 492 566 31,000  Level FlightAware Transoceanic
Sat 08:53:00 AM 64.0104 -49.6887 266° West 492 566 31,000  Level FlightAware Transoceanic
Sat 08:54:00 AM 63.9558 -49.9682 246° West  Level Estimated
Sat 08:55:00 AM 64.0000 -50.0000 262° West 483 556 31,000  Level ETMS Enhanced Traffic Management System
Sat 08:55:07 AM 63.9740 -50.4070 246° West 495 570 31,000  Level FlightAware ADS-B
Sat 08:55:42 AM 63.9620 -50.5830 261° West 493 567 31,000  Level FlightAware ADS-B
Sat 08:56:26 AM 63.9470 -50.8060 261° West 491 565 31,000  Level FlightAware ADS-B
Sat 08:57:06 AM 63.9330 -51.0120 261° West 489 563 31,000  Level FlightAware ADS-B
Sat 08:57:50 AM 63.9170 -51.2350 261° West 489 563 31,000  Level FlightAware ADS-B
Sat 08:58:31 AM 63.9030 -51.4340 261° West 489 563 31,000  Level FlightAware ADS-B
Sat 08:59:12 AM 63.8870 -51.6460 260° West 488 562 31,000  Level FlightAware ADS-B
Sat 08:59:55 AM 63.8710 -51.8670 261° West 489 563 31,000  Level FlightAware ADS-B
Sat 09:00:28 AM 63.8630 -51.9670 262° West 489 563 31,000  Level FlightAware ADS-B
Sat 09:01:16 AM 63.8390 -52.2720 260° West 489 563 31,000  Level FlightAware ADS-B
Sat 09:01:56 AM 63.8230 -52.4740 260° West 488 562 31,000  Level FlightAware ADS-B
Sat 09:02:40 AM 63.8050 -52.6940 260° West 487 560 31,000  Level FlightAware ADS-B
Sat 09:03:18 AM 63.7890 -52.8870 259° West 487 560 31,000  Level FlightAware ADS-B
Sat 09:03:59 AM 63.7720 -53.0910 259° West 486 559 31,000  Level FlightAware ADS-B
Sat 09:04:46 AM 63.7530 -53.3010 259° West 485 558 31,000  Level FlightAware ADS-B
Sat 09:05:23 AM 63.7380 -53.4570 258° West 485 558 31,000  Level FlightAware ADS-B
Sat 09:06:11 AM 63.7190 -53.6590 258° West 485 558 31,000  Level FlightAware ADS-B
Sat 09:06:47 AM 63.7050 -53.8110 258° West 485 558 31,000  Level FlightAware ADS-B
Sat 09:07:48 AM 63.6810 -54.0670 258° West 485 558 31,000  Level FlightAware ADS-B
Sat 09:08:24 AM 63.6670 -54.2190 258° West 485 558 31,000  Level FlightAware ADS-B
Sat 09:09:13 AM 63.6470 -54.4250 258° West 485 558 31,000  Level FlightAware ADS-B
Sat 09:09:49 AM 63.6330 -54.5760 258° West 485 558 31,000  Level FlightAware ADS-B
Sat 09:10:37 AM 63.6140 -54.7780 258° West 485 558 31,000  Level FlightAware ADS-B
Sat 09:11:14 AM 63.5990 -54.9330 258° West 485 558 31,000  Level FlightAware ADS-B
Sat 09:12:12 AM 63.5760 -55.1760 258° West 485 558 31,000  Level FlightAware ADS-B
Sat 09:13:11 AM 63.5530 -55.4230 258° West 485 558 31,000  Level FlightAware ADS-B
Sat 09:14:13 AM 63.5280 -55.6830 258° West 485 558 31,000  Level FlightAware ADS-B
Sat 09:14:53 AM 63.4833 -56.2000 258° West 490 564 31,000  Level Gander Center
Sat 09:15:53 AM 63.4500 -56.5000 256° West 460 529 31,000  Level Gander Center
Sat 09:16:53 AM 63.4167 -56.7667 255° West 480 552 31,000  Level Gander Center
Sat 09:17:53 AM 63.3833 -57.0667 256° West 480 552 31,000  Level Gander Center
Sat 09:18:53 AM 63.3667 -57.3667 263° West 480 552 31,000  Level Gander Center
Sat 09:19:53 AM 63.3167 -57.6333 247° West 480 552 31,000  Level Gander Center
Sat 09:20:53 AM 63.3000 -57.9333 263° West 480 552 31,000  Level Gander Center
Sat 09:21:43 AM 63.2500 -58.0667 230° Southwest 480 552 31,000  Level Montreal Center
Sat 09:22:43 AM 63.2167 -58.3500 255° West 490 564 31,000  Level Montreal Center
Sat 09:23:43 AM 63.1833 -58.6333 256° West 480 552 31,000  Level Montreal Center
Sat 09:24:43 AM 63.1500 -58.9667 258° West 490 564 31,000  Level Montreal Center
Sat 09:25:43 AM 63.1000 -59.2167 246° West 480 552 31,000  Level Montreal Center
Sat 09:26:43 AM 63.0667 -59.5000 256° West 480 552 31,000  Level Montreal Center
Sat 09:27:43 AM 63.0333 -59.7833 256° West 490 564 31,000  Level Montreal Center
Sat 09:28:43 AM 63.0000 -60.0667 256° West 490 564 31,000  Level Montreal Center
Sat 09:29:43 AM 62.9333 -60.3667 244° Southwest 490 564 31,000  Level Montreal Center
Sat 09:30:43 AM 62.9000 -60.6500 256° West 490 564 31,000  Level Montreal Center
Sat 09:31:43 AM 62.8667 -60.9333 256° West 490 564 31,000  Level Montreal Center
Sat 09:32:43 AM 62.8000 -61.2167 243° Southwest 490 564 31,000  Level Montreal Center
Sat 09:33:43 AM 62.7667 -61.5000 256° West 490 564 31,000  Level Montreal Center
Sat 09:34:43 AM 62.7333 -61.7833 256° West 490 564 31,000  Level Montreal Center
Sat 09:35:43 AM 62.6833 -62.0167 245° Southwest 490 564 31,000  Level Montreal Center
Sat 09:36:43 AM 62.6333 -62.3000 249° West 490 564 31,000  Level Montreal Center
Sat 09:37:43 AM 62.5833 -62.5833 249° West 490 564 31,000 1,050 Level Montreal Center
Sat 09:38:43 AM 62.5333 -62.8667 249° West 490 564 33,100 1,950 Climbing Montreal Center
Sat 09:39:43 AM 62.4833 -63.1500 249° West 490 564 34,900 1,400 Climbing Montreal Center
Sat 09:40:43 AM 62.4333 -63.4167 248° West 480 552 35,900 550 Climbing Montreal Center
Sat 09:41:43 AM 62.3667 -63.6667 240° Southwest 490 564 36,000 50 Climbing Montreal Center
Sat 09:42:43 AM 62.3333 -63.9333 255° West 490 564 36,000  Level Montreal Center
Sat 09:43:43 AM 62.2833 -64.2167 249° West 490 564 36,000  Level Montreal Center
Sat 09:44:43 AM 62.2167 -64.4833 242° Southwest 480 552 36,000  Level Montreal Center
Sat 09:45:43 AM 62.1667 -64.7167 245° Southwest 480 552 36,000  Level Montreal Center
Sat 09:46:43 AM 62.1333 -65.0000 256° West 490 564 36,000  Level Montreal Center
Sat 09:47:43 AM 62.0667 -65.3000 245° Southwest 490 564 36,000  Level Montreal Center
Sat 09:48:43 AM 62.0167 -65.5333 246° West 480 552 36,000  Level Montreal Center
Sat 09:49:43 AM 61.9667 -65.8000 248° West 490 564 36,000  Level Montreal Center
Sat 09:50:43 AM 61.9000 -66.0833 244° Southwest 490 564 36,000  Level Montreal Center
Sat 09:51:43 AM 61.8500 -66.3500 248° West 490 564 36,000  Level Montreal Center
Sat 09:52:43 AM 61.8000 -66.5667 244° Southwest 490 564 36,000  Level Montreal Center
Sat 09:53:43 AM 61.7333 -66.8500 244° Southwest 490 564 36,000  Level Montreal Center
Sat 09:54:43 AM 61.7000 -67.1000 254° West 490 564 36,000  Level Montreal Center
Sat 09:55:43 AM 61.6500 -67.4000 251° West 490 564 36,000  Level Montreal Center
Sat 09:56:43 AM 61.6167 -67.7000 257° West 490 564 36,000  Level Montreal Center
Sat 09:57:43 AM 61.5833 -67.9500 254° West 490 564 36,000  Level Montreal Center
Sat 09:58:43 AM 61.5500 -68.2333 256° West 480 552 36,000  Level Montreal Center
Sat 09:59:43 AM 61.5000 -68.5000 249° West 490 564 36,000  Level Montreal Center
Sat 10:00:43 AM 61.4500 -68.7500 247° West 490 564 36,000  Level Montreal Center
Sat 10:01:43 AM 61.4167 -69.0500 257° West 490 564 36,000  Level Montreal Center
Sat 10:02:43 AM 61.3833 -69.3000 255° West 490 564 36,000  Level Montreal Center
Sat 10:03:43 AM 61.3333 -69.6000 251° West 490 564 36,000  Level Montreal Center
Sat 10:04:43 AM 61.2833 -69.8833 250° West 500 575 36,000  Level Montreal Center
Sat 10:05:43 AM 61.2000 -70.1000 231° Southwest 500 575 36,000  Level Montreal Center
Sat 10:06:43 AM 61.1333 -70.3667 243° Southwest 500 575 36,000  Level Montreal Center
Sat 10:07:43 AM 61.0667 -70.5833 238° Southwest 490 564 36,000  Level Montreal Center
Sat 10:08:43 AM 61.0000 -70.8333 241° Southwest 520 598 36,000  Level Montreal Center
Sat 10:09:43 AM 60.9167 -71.0833 236° Southwest 510 587 36,000  Level Montreal Center
Sat 10:10:43 AM 60.8500 -71.3500 243° Southwest 510 587 36,000  Level Montreal Center
Sat 10:11:43 AM 60.7667 -71.6000 236° Southwest 510 587 36,000  Level Montreal Center
Sat 10:12:43 AM 60.6833 -71.8167 232° Southwest 510 587 36,000  Level Montreal Center
Sat 10:13:43 AM 60.6167 -72.0667 242° Southwest 510 587 36,000  Level Montreal Center
Sat 10:14:43 AM 60.5333 -72.3000 234° Southwest 500 575 36,000  Level Montreal Center
Sat 10:15:43 AM 60.4667 -72.5500 242° Southwest 500 575 36,000  Level Montreal Center
Sat 10:16:43 AM 60.3833 -72.7667 232° Southwest 500 575 36,000  Level Montreal Center
Sat 10:17:43 AM 60.3000 -73.0167 236° Southwest 500 575 36,000  Level Montreal Center
Sat 10:18:43 AM 60.2167 -73.2500 234° Southwest 500 575 36,000  Level Montreal Center
Sat 10:19:43 AM 60.1500 -73.5000 242° Southwest 500 575 36,000  Level Montreal Center
Sat 10:20:43 AM 60.0667 -73.7000 230° Southwest 500 575 36,000  Level Montreal Center
Sat 10:21:43 AM 59.9833 -73.9500 236° Southwest 500 575 36,000  Level Montreal Center
Sat 10:22:43 AM 59.9000 -74.1833 235° Southwest 500 575 36,000  Level Montreal Center
Sat 10:23:43 AM 59.8167 -74.3833 230° Southwest 500 575 36,000  Level Montreal Center
Sat 10:24:43 AM 59.7333 -74.6333 237° Southwest 510 587 36,000  Level Montreal Center
Sat 10:25:43 AM 59.6667 -74.8667 241° Southwest 510 587 36,000  Level Montreal Center
Sat 10:26:43 AM 59.5833 -75.1000 235° Southwest 510 587 36,000  Level Montreal Center
Sat 10:27:43 AM 59.5000 -75.3333 235° Southwest 510 587 36,000  Level Montreal Center
Sat 10:28:43 AM 59.4000 -75.5667 230° Southwest 520 598 36,000  Level Montreal Center
Sat 10:29:43 AM 59.3167 -75.8000 235° Southwest 520 598 36,000  Level Montreal Center
Sat 10:30:43 AM 59.2333 -76.0167 233° Southwest 520 598 36,000  Level Montreal Center
Sat 10:31:43 AM 59.1500 -76.2167 231° Southwest 520 598 36,000  Level Montreal Center
Sat 10:32:43 AM 59.0500 -76.4500 230° Southwest 510 587 36,000  Level Montreal Center
Sat 10:33:43 AM 58.9667 -76.6833 235° Southwest 510 587 36,000  Level Montreal Center
Sat 10:34:43 AM 58.8833 -76.9000 233° Southwest 510 587 36,000  Level Montreal Center
Sat 10:35:43 AM 58.8000 -77.1333 235° Southwest 510 587 36,000  Level Montreal Center
Sat 10:36:43 AM 58.7167 -77.3500 234° Southwest 510 587 36,000  Level Montreal Center
Sat 10:37:43 AM 58.6333 -77.5333 229° Southwest 510 587 36,000  Level Montreal Center
Sat 10:38:43 AM 58.5500 -77.7667 236° Southwest 500 575 36,000  Level Montreal Center
Sat 10:39:43 AM 58.4500 -77.9833 229° Southwest 500 575 36,000  Level Montreal Center
Sat 10:40:43 AM 58.3667 -78.2000 234° Southwest 510 587 36,000  Level Montreal Center
Sat 10:41:43 AM 58.2833 -78.3833 229° Southwest 510 587 36,000  Level Montreal Center
Sat 10:42:43 AM 58.2000 -78.6000 234° Southwest 500 575 36,000  Level Montreal Center
Sat 10:43:43 AM 58.0833 -78.8167 225° Southwest 510 587 36,000  Level Montreal Center
Sat 10:44:43 AM 58.0000 -79.0333 234° Southwest 510 587 36,000  Level Montreal Center
Sat 10:45:43 AM 57.9167 -79.2500 234° Southwest 510 587 36,000  Level Montreal Center
Sat 10:46:43 AM 57.8167 -79.4333 224° Southwest 510 587 36,000  Level Montreal Center
Sat 10:47:43 AM 57.7333 -79.6500 234° Southwest 510 587 36,000  Level Montreal Center
Sat 10:48:43 AM 57.6333 -79.8333 225° Southwest 510 587 36,000  Level Montreal Center
Sat 10:49:43 AM 57.5333 -80.0333 227° Southwest 510 587 36,000  Level Montreal Center
Sat 10:50:43 AM 57.4333 -80.2167 225° Southwest 510 587 36,000  Level Montreal Center
Sat 10:51:43 AM 57.3167 -80.3833 218° Southwest 510 587 36,000  Level Montreal Center
Sat 10:52:43 AM 57.2167 -80.5667 225° Southwest 510 587 36,000  Level Montreal Center
Sat 10:53:43 AM 57.1167 -80.7333 222° Southwest 510 587 36,000  Level Montreal Center
Sat 10:54:43 AM 57.0167 -80.9333 227° Southwest 510 587 36,000  Level Montreal Center
Sat 10:55:43 AM 56.9000 -81.1167 221° Southwest 510 587 36,000  Level Montreal Center
Sat 10:56:43 AM 56.8000 -81.2833 222° Southwest 510 587 36,000  Level Montreal Center
Sat 10:57:43 AM 56.6833 -81.4500 218° Southwest 510 587 36,000  Level Montreal Center
Sat 10:58:43 AM 56.5833 -81.6167 223° Southwest 510 587 36,000  Level Montreal Center
Sat 10:59:43 AM 56.4833 -81.7833 223° Southwest 500 575 36,000  Level Montreal Center
Sat 11:00:43 AM 56.3833 -81.9833 228° Southwest 510 587 36,000  Level Montreal Center
Sat 11:01:43 AM 56.2667 -82.1500 218° Southwest 510 587 36,000  Level Montreal Center
Sat 11:02:43 AM 56.1667 -82.3167 223° Southwest 510 587 36,000  Level Montreal Center
Sat 11:03:43 AM 56.0667 -82.4833 223° Southwest 510 587 36,000  Level Montreal Center
Sat 11:04:43 AM 55.9333 -82.6667 218° Southwest 510 587 36,000  Level Montreal Center
Sat 11:05:43 AM 55.8500 -82.8333 228° Southwest 510 587 36,000  Level Montreal Center
Sat 11:06:43 AM 55.7333 -83.0000 219° Southwest 500 575 36,000  Level Montreal Center
Sat 11:07:43 AM 55.6333 -83.1500 220° Southwest 510 587 36,000  Level Montreal Center
Sat 11:08:43 AM 55.5167 -83.3167 219° Southwest 500 575 36,000  Level Montreal Center
Sat 11:09:43 AM 55.4000 -83.4667 216° Southwest 500 575 36,000  Level Montreal Center
Sat 11:10:43 AM 55.3167 -83.6333 229° Southwest 510 587 36,000  Level Montreal Center
Sat 11:11:43 AM 55.2000 -83.7667 213° Southwest 510 587 36,000  Level Montreal Center
Sat 11:13:05 AM 55.0000 -83.8667 196° South 500 575 36,000  Level Edmonton Center
Sat 11:14:05 AM 54.9000 -84.0167 221° Southwest 490 564 36,000  Level Edmonton Center
Sat 11:15:05 AM 54.8000 -84.1667 221° Southwest 500 575 36,000  Level Edmonton Center
Sat 11:16:05 AM 54.6833 -84.3167 217° Southwest 500 575 36,000  Level Edmonton Center
Sat 11:17:05 AM 54.5833 -84.4667 221° Southwest 500 575 36,000  Level Edmonton Center
Sat 11:18:05 AM 54.4500 -84.6167 213° Southwest 510 587 36,000  Level Edmonton Center
Sat 11:19:05 AM 54.3667 -84.7667 226° Southwest 510 587 36,000  Level Edmonton Center
Sat 11:20:05 AM 54.2333 -84.9167 213° Southwest 500 575 36,000  Level Edmonton Center
Sat 11:21:05 AM 54.1333 -85.0667 221° Southwest 500 575 36,000  Level Edmonton Center
Sat 11:22:05 AM 54.0167 -85.2167 217° Southwest 510 587 36,000  Level Edmonton Center
Sat 11:23:05 AM 53.9000 -85.3667 217° Southwest 500 575 36,000  Level Edmonton Center
Sat 11:24:05 AM 53.8000 -85.5000 218° Southwest 500 575 36,000  Level Edmonton Center
Sat 11:25:05 AM 53.6833 -85.6500 217° Southwest 500 575 36,000  Level Edmonton Center
Sat 11:26:05 AM 53.5667 -85.7667 211° Southwest 490 564 36,000  Level Edmonton Center
Sat 11:27:05 AM 53.4500 -85.8833 211° Southwest 490 564 36,000  Level Edmonton Center
Sat 11:28:05 AM 53.3333 -86.0000 211° Southwest 490 564 36,000  Level Edmonton Center
Sat 11:29:05 AM 53.2167 -86.1167 211° Southwest 500 575 36,000  Level Edmonton Center
Sat 11:30:05 AM 53.1000 -86.2167 207° Southwest 500 575 36,000  Level Edmonton Center
Sat 11:31:05 AM 52.9667 -86.3167 204° Southwest 490 564 36,000  Level Edmonton Center
Sat 11:32:05 AM 52.8500 -86.4167 207° Southwest 500 575 36,000  Level Edmonton Center
Sat 11:33:05 AM 52.7333 -86.5333 211° Southwest 490 564 36,000  Level Edmonton Center
Sat 11:34:05 AM 52.5833 -86.6500 205° Southwest 490 564 36,000  Level Edmonton Center
Sat 11:35:05 AM 52.4833 -86.7667 215° Southwest 490 564 36,000  Level Edmonton Center
Sat 11:36:05 AM 52.3500 -86.8833 208° Southwest 490 564 36,000  Level Edmonton Center
Sat 11:37:05 AM 52.2500 -86.9833 211° Southwest 490 564 36,000  Level Edmonton Center
Sat 11:38:05 AM 52.1167 -87.0667 201° Southwest 490 564 36,000  Level Edmonton Center
Sat 11:39:05 AM 52.0000 -87.1667 208° Southwest 490 564 36,000  Level Edmonton Center
Sat 11:40:05 AM 51.8833 -87.2833 212° Southwest 500 575 36,000  Level Edmonton Center
Sat 11:41:05 AM 51.7333 -87.4000 206° Southwest 500 575 36,000  Level Edmonton Center
Sat 11:42:05 AM 51.6333 -87.5000 212° Southwest 500 575 36,000  Level Edmonton Center
Sat 11:43:05 AM 51.5167 -87.6000 208° Southwest 500 575 36,000  Level Edmonton Center
Sat 11:44:05 AM 51.3833 -87.7167 209° Southwest 490 564 36,000  Level Edmonton Center
Sat 11:45:05 AM 51.2667 -87.8167 208° Southwest 500 575 36,000  Level Edmonton Center
Sat 11:46:05 AM 51.1333 -87.9167 205° Southwest 500 575 36,000  Level Edmonton Center
Sat 11:47:05 AM 51.0167 -88.0000 204° Southwest 500 575 36,000  Level Edmonton Center
Sat 11:48:01 AM 50.9167 -88.1333 220° Southwest 500 575 36,000  Level Winnipeg Center
Sat 11:49:01 AM 50.7833 -88.2500 209° Southwest 500 575 36,000  Level Winnipeg Center
Sat 11:50:01 AM 50.6667 -88.3500 209° Southwest 500 575 36,000  Level Winnipeg Center
Sat 11:51:01 AM 50.5500 -88.4500 209° Southwest 500 575 36,000  Level Winnipeg Center
Sat 11:52:01 AM 50.4167 -88.5500 206° Southwest 500 575 36,000  Level Winnipeg Center
Sat 11:53:01 AM 50.3000 -88.6167 200° South 500 575 36,000  Level Winnipeg Center
Sat 11:54:01 AM 50.1667 -88.7333 209° Southwest 500 575 36,000  Level Winnipeg Center
Sat 11:55:01 AM 50.0500 -88.8167 205° Southwest 500 575 36,000  Level Winnipeg Center
Sat 11:56:01 AM 49.9333 -88.9167 209° Southwest 500 575 36,000  Level Winnipeg Center
Sat 11:57:01 AM 49.8000 -89.0167 206° Southwest 500 575 36,000  Level Winnipeg Center
Sat 11:58:01 AM 49.6667 -89.1167 206° Southwest 500 575 36,000  Level Winnipeg Center
Sat 11:59:01 AM 49.5500 -89.2167 209° Southwest 500 575 36,000  Level Winnipeg Center
Sat 12:00:01 PM 49.4333 -89.3167 209° Southwest 500 575 36,000  Level Winnipeg Center
Sat 12:01:01 PM 49.2833 -89.4167 204° Southwest 510 587 36,000  Level Winnipeg Center
Sat 12:06:34 PM 48.6130 -89.9750 204° Southwest 509 586 36,000  Level FlightAware ADS-B
Sat 12:07:16 PM 48.5210 -90.0420 206° Southwest 510 587 36,000  Level FlightAware ADS-B
Sat 12:08:00 PM 48.4260 -90.1120 206° Southwest 511 588 36,000  Level FlightAware ADS-B
Sat 12:08:39 PM 48.3450 -90.1710 206° Southwest 512 589 36,000  Level FlightAware ADS-B
Sat 12:09:19 PM 48.2580 -90.2290 204° Southwest 512 589 36,000  Level FlightAware ADS-B
Sat 12:09:57 PM 48.1760 -90.2830 204° Southwest 512 589 36,000  Level FlightAware ADS-B
Sat 12:10:39 PM 48.0830 -90.3430 203° Southwest 512 589 36,000  Level FlightAware ADS-B
Sat 12:11:22 PM 48.0070 -90.3930 204° Southwest 510 587 36,000  Level FlightAware ADS-B
Sat 12:11:59 PM 47.9340 -90.4410 204° Southwest 509 586 36,000  Level FlightAware ADS-B
Sat 12:12:45 PM 47.8110 -90.5210 204° Southwest 509 586 36,000  Level FlightAware ADS-B
Sat 12:13:29 PM 47.7190 -90.5810 204° Southwest 507 583 36,000  Level FlightAware ADS-B
Sat 12:14:07 PM 47.6350 -90.6350 203° Southwest 507 583 36,000  Level FlightAware ADS-B
Sat 12:14:45 PM 47.5550 -90.6870 204° Southwest 508 585 36,000  Level FlightAware ADS-B
Sat 12:15:27 PM 47.4640 -90.7450 203° Southwest 507 583 36,000  Level FlightAware ADS-B
Sat 12:16:05 PM 47.3820 -90.7970 203° Southwest 509 586 36,000  Level FlightAware ADS-B
Sat 12:16:43 PM 47.3010 -90.8490 204° Southwest 509 586 36,000  Level FlightAware ADS-B
Sat 12:17:27 PM 47.2050 -90.9100 203° Southwest 511 588 36,000  Level FlightAware ADS-B
Sat 12:18:03 PM 47.1250 -90.9600 203° Southwest 510 587 36,000  Level FlightAware ADS-B
Sat 12:18:51 PM 47.0240 -91.0250 204° Southwest 509 586 36,000  Level FlightAware ADS-B
Sat 12:19:31 PM 46.9360 -91.0790 203° Southwest 509 586 36,000  Level FlightAware ADS-B
Sat 12:19:55 PM 46.8860 -91.1110 204° Southwest 508 585 36,000  Level FlightAware ADS-B
Sat 12:20:43 PM 46.7810 -91.1760 203° Southwest 508 585 36,000  Level FlightAware ADS-B
Sat 12:21:23 PM 46.6950 -91.2300 203° Southwest 508 585 36,000  Level FlightAware ADS-B
Sat 12:22:03 PM 46.6080 -91.2830 203° Southwest 508 585 36,000  Level FlightAware ADS-B
Sat 12:22:48 PM 46.5120 -91.3430 203° Southwest 507 583 36,000  Level FlightAware ADS-B
Sat 12:23:29 PM 46.4220 -91.3980 203° Southwest 506 582 36,000  Level FlightAware ADS-B
Sat 12:24:13 PM 46.3270 -91.4570 203° Southwest 506 582 36,000  Level FlightAware ADS-B
Sat 12:24:53 PM 46.2420 -91.5080 203° Southwest 506 582 36,000  Level FlightAware ADS-B
Sat 12:25:31 PM 46.1580 -91.5590 203° Southwest 510 587 36,000  Level FlightAware ADS-B
Sat 12:26:11 PM 46.0720 -91.6110 203° Southwest 510 587 36,000  Level FlightAware ADS-B
Sat 12:26:55 PM 45.9780 -91.6680 203° Southwest 507 583 36,000  Level FlightAware ADS-B
Sat 12:27:35 PM 45.8910 -91.7200 203° Southwest 507 583 36,000  Level FlightAware ADS-B
Sat 12:28:17 PM 45.7990 -91.7750 203° Southwest 508 585 36,000  Level FlightAware ADS-B
Sat 12:28:59 PM 45.7080 -91.8300 203° Southwest 508 585 36,000  Level FlightAware ADS-B
Sat 12:29:40 PM 45.6220 -91.8810 203° Southwest 509 586 36,000  Level FlightAware ADS-B
Sat 12:30:19 PM 45.5340 -91.9340 203° Southwest 511 588 36,000  Level FlightAware ADS-B
Sat 12:30:59 PM 45.4470 -91.9850 202° Southwest 512 589 36,000  Level FlightAware ADS-B
Sat 12:31:37 PM 45.3660 -92.0320 202° Southwest 512 589 36,000  Level FlightAware ADS-B
Sat 12:32:20 PM 45.2740 -92.0870 203° Southwest 514 592 36,000  Level FlightAware ADS-B
Sat 12:33:04 PM 45.1730 -92.1460 202° Southwest 514 592 36,000  Level FlightAware ADS-B
Sat 12:33:49 PM 45.0750 -92.2030 202° Southwest 514 592 36,000  Level FlightAware ADS-B
Sat 12:34:30 PM 44.9860 -92.2540 202° Southwest 513 590 36,000  Level FlightAware ADS-B
Sat 12:35:06 PM 44.9040 -92.3020 203° Southwest 514 592 36,000  Level FlightAware ADS-B
Sat 12:35:50 PM 44.8100 -92.3560 202° Southwest 515 593 36,000  Level FlightAware ADS-B
Sat 12:36:34 PM 44.7110 -92.4130 202° Southwest 516 594 36,000  Level FlightAware ADS-B
Sat 12:37:18 PM 44.6130 -92.4690 202° Southwest 517 595 36,000  Level FlightAware ADS-B
Sat 12:37:58 PM 44.5250 -92.5190 202° Southwest 518 596 36,000  Level FlightAware ADS-B
Sat 12:38:38 PM 44.4370 -92.5700 202° Southwest 519 597 36,000  Level FlightAware ADS-B
Sat 12:39:20 PM 44.3440 -92.6220 202° Southwest 516 594 36,000  Level FlightAware ADS-B
Sat 12:39:55 PM 44.2670 -92.6660 202° Southwest 515 593 36,000  Level FlightAware ADS-B
Sat 12:40:44 PM 44.1580 -92.7270 202° Southwest 514 592 36,000  Level FlightAware ADS-B
Sat 12:41:28 PM 44.0630 -92.7810 202° Southwest 512 589 36,000  Level FlightAware ADS-B
Sat 12:42:08 PM 43.9730 -92.8310 202° Southwest 513 590 36,000  Level FlightAware ADS-B
Sat 12:42:46 PM 43.8900 -92.8770 202° Southwest 515 593 36,000  Level FlightAware ADS-B
Sat 12:43:24 PM 43.8080 -92.9230 202° Southwest 519 597 36,000  Level FlightAware ADS-B
Sat 12:44:06 PM 43.7120 -92.9760 202° Southwest 519 597 36,000  Level FlightAware ADS-B
Sat 12:44:43 PM 43.6320 -93.0200 202° Southwest 519 597 36,000  Level FlightAware ADS-B
Sat 12:45:22 PM 43.5430 -93.0690 202° Southwest 518 596 36,000  Level FlightAware ADS-B
Sat 12:46:06 PM 43.4480 -93.1210 202° Southwest 517 595 36,000  Level FlightAware ADS-B
Sat 12:46:50 PM 43.3450 -93.1780 202° Southwest 518 596 36,000  Level FlightAware ADS-B
Sat 12:47:31 PM 43.2580 -93.2250 201° Southwest 517 595 36,000  Level FlightAware ADS-B
Sat 12:48:10 PM 43.1700 -93.2730 202° Southwest 517 595 36,000  Level FlightAware ADS-B
Sat 12:48:56 PM 43.0670 -93.3290 202° Southwest 518 596 36,000  Level FlightAware ADS-B
Sat 12:49:32 PM 42.9850 -93.3730 201° Southwest 517 595 36,000  Level FlightAware ADS-B
Sat 12:50:11 PM 42.9000 -93.4190 202° Southwest 518 596 36,000  Level FlightAware ADS-B
Sat 12:50:56 PM 42.8010 -93.4720 201° Southwest 519 597 36,000  Level FlightAware ADS-B
Sat 12:51:36 PM 42.7110 -93.5200 201° Southwest 516 594 36,000  Level FlightAware ADS-B
Sat 12:52:19 PM 42.6150 -93.5710 201° Southwest 515 593 36,000  Level FlightAware ADS-B
Sat 12:53:00 PM 42.5230 -93.6200 201° Southwest 520 598 36,000  Level FlightAware ADS-B
Sat 12:53:44 PM 42.4280 -93.6700 201° Southwest 520 598 36,000  Level FlightAware ADS-B
Sat 12:54:20 PM 42.3440 -93.7150 202° Southwest 519 597 36,000  Level FlightAware ADS-B
Sat 12:55:00 PM 42.2560 -93.7610 201° Southwest 518 596 36,000  Level FlightAware ADS-B
Sat 12:55:38 PM 42.1730 -93.8050 201° Southwest 520 598 36,000  Level FlightAware ADS-B
Sat 12:56:22 PM 42.0710 -93.8580 201° Southwest 521 600 36,000  Level FlightAware ADS-B
Sat 12:57:04 PM 41.9760 -93.9070 201° Southwest 522 601 36,000  Level FlightAware ADS-B
Sat 12:57:42 PM 41.8940 -93.9500 201° Southwest 525 604 36,000  Level FlightAware ADS-B
Sat 12:58:28 PM 41.7910 -94.0030 201° Southwest 524 603 36,000  Level FlightAware ADS-B
Sat 12:59:08 PM 41.6960 -94.0530 201° Southwest 521 600 36,000  Level FlightAware ADS-B
Sat 12:59:54 PM 41.5920 -94.1060 201° Southwest 516 594 36,000  Level FlightAware ADS-B
Sat 01:00:34 PM 41.5100 -94.1490 201° Southwest 514 592 36,000  Level FlightAware ADS-B
Sat 01:01:32 PM 41.3860 -94.2120 201° Southwest 514 592 36,000  Level FlightAware ADS-B
Sat 01:02:08 PM 41.3180 -94.2470 201° Southwest 514 592 36,000  Level FlightAware ADS-B
Sat 01:03:16 PM 41.1440 -94.3350 201° Southwest 524 603 36,000  Level FlightAware ADS-B
Sat 01:03:54 PM 41.0550 -94.3800 201° Southwest 527 606 36,000  Level FlightAware ADS-B
Sat 01:04:38 PM 40.9540 -94.4310 201° Southwest 528 608 36,000  Level FlightAware ADS-B
Sat 01:05:18 PM 40.8760 -94.4690 200° South 528 608 36,000  Level FlightAware ADS-B
Sat 01:05:54 PM 40.8050 -94.5020 199° South 528 608 36,000  Level FlightAware ADS-B
Sat 01:06:56 PM 40.6520 -94.5810 201° Southwest 524 603 36,000  Level FlightAware ADS-B
Sat 01:07:35 PM 40.5540 -94.6310 201° Southwest 520 598 36,000  Level FlightAware ADS-B
Sat 01:08:19 PM 40.4660 -94.6740 200° South 520 598 36,000  Level FlightAware ADS-B
Sat 01:08:53 PM 40.3800 -94.7170 201° Southwest 521 600 36,000  Level FlightAware ADS-B
Sat 01:09:41 PM 40.2680 -94.7720 201° Southwest 519 597 36,000  Level FlightAware ADS-B
Sat 01:10:19 PM 40.1870 -94.8120 201° Southwest 520 598 36,000  Level FlightAware ADS-B
Sat 01:10:59 PM 40.0950 -94.8570 201° Southwest 522 601 36,000  Level FlightAware ADS-B
Sat 01:11:35 PM 40.0120 -94.8980 201° Southwest 524 603 36,000  Level FlightAware ADS-B
Sat 01:12:17 PM 39.9150 -94.9450 200° South 525 604 36,000  Level FlightAware ADS-B
Sat 01:13:05 PM 39.8070 -94.9980 201° Southwest 524 603 36,000  Level FlightAware ADS-B
Sat 01:13:47 PM 39.7120 -95.0440 200° South 523 602 36,000  Level FlightAware ADS-B
Sat 01:14:25 PM 39.6260 -95.0850 200° South 522 601 36,000  Level FlightAware ADS-B
Sat 01:15:11 PM 39.5220 -95.1360 201° Southwest 520 598 36,000  Level FlightAware ADS-B
Sat 01:15:47 PM 39.4410 -95.1740 200° South 519 597 36,000  Level FlightAware ADS-B
Sat 01:16:29 PM 39.3470 -95.2200 201° Southwest 519 597 36,000  Level FlightAware ADS-B
Sat 01:17:07 PM 39.2620 -95.2600 200° South 519 597 36,000  Level FlightAware ADS-B
Sat 01:17:41 PM 39.1830 -95.2980 200° South 519 597 36,000  Level FlightAware ADS-B
Sat 01:18:19 PM 39.1000 -95.3370 200° South 519 597 36,000  Level FlightAware ADS-B
Sat 01:19:07 PM 38.9900 -95.3890 200° South 521 600 36,000  Level FlightAware ADS-B
Sat 01:19:49 PM 38.8940 -95.4350 200° South 521 600 36,000  Level FlightAware ADS-B
Sat 01:20:33 PM 38.7960 -95.4810 200° South 522 601 36,000  Level FlightAware ADS-B
Sat 01:21:09 PM 38.7140 -95.5190 200° South 522 601 36,000  Level FlightAware ADS-B
Sat 01:21:55 PM 38.6110 -95.5680 200° South 522 601 36,000  Level FlightAware ADS-B
Sat 01:22:29 PM 38.5320 -95.6040 200° South 522 601 36,000  Level FlightAware ADS-B
Sat 01:23:12 PM 38.4360 -95.6490 200° South 521 600 36,000  Level FlightAware ADS-B
Sat 01:23:55 PM 38.3370 -95.6950 200° South 523 602 36,000  Level FlightAware ADS-B
Sat 01:24:31 PM 38.2550 -95.7340 200° South 524 603 36,000  Level FlightAware ADS-B
Sat 01:25:11 PM 38.1650 -95.7750 200° South 527 606 36,000  Level FlightAware ADS-B
Sat 01:25:55 PM 38.0630 -95.8220 200° South 527 606 36,000  Level FlightAware ADS-B
Sat 01:26:27 PM 37.9880 -95.8570 200° South 527 606 36,000  Level FlightAware ADS-B
Sat 01:27:11 PM 37.8870 -95.9030 200° South 529 609 36,000  Level FlightAware ADS-B
Sat 01:27:55 PM 37.7860 -95.9490 200° South 529 609 36,000  Level FlightAware ADS-B
Sat 01:28:35 PM 37.6940 -95.9910 200° South 527 606 36,000  Level FlightAware ADS-B
Sat 01:29:19 PM 37.5940 -96.0360 200° South 527 606 36,000  Level FlightAware ADS-B
Sat 01:29:59 PM 37.5030 -96.0780 200° South 529 609 36,000  Level FlightAware ADS-B
Sat 01:30:43 PM 37.4000 -96.1240 200° South 528 608 36,000  Level FlightAware ADS-B
Sat 01:31:19 PM 37.3190 -96.1610 200° South 526 605 36,000  Level FlightAware ADS-B
Sat 01:31:59 PM 37.2270 -96.2020 200° South 527 606 36,000  Level FlightAware ADS-B
Sat 01:32:39 PM 37.1350 -96.2440 200° South 527 606 36,000  Level FlightAware ADS-B
Sat 01:33:19 PM 37.0440 -96.2840 199° South 527 606 36,000  Level FlightAware ADS-B
Sat 01:33:59 PM 36.9490 -96.3270 200° South 530 610 36,000  Level FlightAware ADS-B
Sat 01:34:39 PM 36.8590 -96.3670 200° South 529 609 36,000  Level FlightAware ADS-B
Sat 01:35:19 PM 36.7660 -96.4080 199° South 528 608 36,000  Level FlightAware ADS-B
Sat 01:36:02 PM 36.6680 -96.4520 200° South 527 606 36,000  Level FlightAware ADS-B
Sat 01:36:43 PM 36.5730 -96.4940 200° South 527 606 36,000  Level FlightAware ADS-B
Sat 01:37:27 PM 36.4710 -96.5390 200° South 528 608 36,000  Level FlightAware ADS-B
Sat 01:38:01 PM 36.3930 -96.5730 199° South 528 608 36,000  Level FlightAware ADS-B
Sat 01:38:40 PM 36.3170 -96.6060 199° South 528 608 36,000  Level FlightAware ADS-B
Sat 01:39:24 PM 36.2080 -96.6540 200° South 524 603 36,000  Level FlightAware ADS-B
Sat 01:40:20 PM 36.0760 -96.7110 199° South 520 598 36,000  Level FlightAware ADS-B
Sat 01:41:19 PM 35.9540 -96.7640 199° South 519 597 36,000  Level FlightAware ADS-B
Sat 01:42:00 PM 35.8490 -96.8100 200° South 522 601 36,000  Level FlightAware ADS-B
Sat 01:42:38 PM 35.7740 -96.8420 199° South 522 601 36,000  Level FlightAware ADS-B
Sat 01:43:25 PM 35.6830 -96.8810 199° South 522 601 36,000  Level FlightAware ADS-B
Sat 01:44:18 PM 35.5510 -96.9380 199° South 523 602 36,000  Level FlightAware ADS-B
Sat 01:45:01 PM 35.4380 -96.9870 199° South 523 602 36,000  Level FlightAware ADS-B
Sat 01:46:00 PM 35.3150 -97.0390 199° South 523 602 36,000  Level FlightAware ADS-B
Sat 01:46:39 PM 35.2120 -97.0830 199° South 524 603 36,000 -308 Level FlightAware ADS-B
Sat 01:47:18 PM 35.1210 -97.1220 199° South 515 593 35,600 -1,169 Descending FlightAware ADS-B
Sat 01:47:56 PM 35.0410 -97.1560 199° South 507 583 34,500 -1,816 Descending FlightAware ADS-B
Sat 01:48:34 PM 34.9560 -97.1920 199° South 495 570 33,300 -1,923 Descending FlightAware ADS-B
Sat 01:49:14 PM 34.8680 -97.2290 199° South 483 556 32,000 -1,857 Descending FlightAware ADS-B
Sat 01:49:58 PM 34.7780 -97.2670 199° South 472 543 30,700 -1,761 Descending FlightAware ADS-B
Sat 01:50:46 PM 34.6800 -97.3080 199° South 462 532 29,300 -1,733 Descending FlightAware ADS-B
Sat 01:51:28 PM 34.5960 -97.3430 199° South 454 522 28,100 -1,735 Descending FlightAware ADS-B
Sat 01:52:09 PM 34.5150 -97.3780 200° South 446 513 26,900 -1,692 Descending FlightAware ADS-B
Sat 01:52:46 PM 34.4440 -97.4070 199° South 438 504 25,900 -1,671 Descending FlightAware ADS-B
Sat 01:53:28 PM 34.3640 -97.4400 199° South 428 493 24,700 -1,425 Descending FlightAware ADS-B
Sat 01:54:06 PM 34.2930 -97.4700 199° South 419 482 24,000 -742 Descending FlightAware ADS-B
Sat 01:55:05 PM 34.1860 -97.5210 202° Southwest 420 483 23,500 -1,163 Descending FlightAware ADS-B
Sat 01:55:44 PM 34.1150 -97.5550 202° Southwest 420 483 22,100 -1,765 Descending FlightAware ADS-B
Sat 01:56:30 PM 34.0330 -97.5890 199° South 419 482 21,000 -1,465 Descending FlightAware ADS-B
Sat 01:57:10 PM 33.9550 -97.6020 188° South 408 470 20,000 -1,446 Descending FlightAware ADS-B
Sat 01:57:53 PM 33.8780 -97.6070 183° South 396 456 19,000 -1,465 Descending FlightAware ADS-B
Sat 01:58:36 PM 33.8020 -97.6120 183° South 386 444 17,900 -1,518 Descending FlightAware ADS-B
Sat 01:59:16 PM 33.7280 -97.6170 183° South 375 432 16,900 -1,429 Descending FlightAware ADS-B
Sat 02:00:00 PM 33.6520 -97.6220 183° South 369 425 15,900 -1,357 Descending FlightAware ADS-B
Sat 02:00:40 PM 33.5840 -97.6270 184° South 384 442 15,000 -1,421 Descending FlightAware ADS-B
Sat 02:01:16 PM 33.5170 -97.6320 184° South 377 434 14,100 -1,425 Descending FlightAware ADS-B
Sat 02:02:00 PM 33.4420 -97.6370 183° South 367 422 13,100 -1,350 Descending FlightAware ADS-B
Sat 02:02:36 PM 33.3850 -97.6310 175° South 360 414 12,300 -1,500 Descending FlightAware ADS-B
Sat 02:02:56 PM 33.3550 -97.6080 147° Southeast 351 404 11,700 -1,200 Descending FlightAware ADS-B
Sat 02:03:36 PM 33.3090 -97.5540 136° Southeast 331 381 11,100 -600 Descending FlightAware ADS-B
Sat 02:04:16 PM 33.2680 -97.5050 135° Southeast 307 353 10,900 -146 Descending FlightAware ADS-B
Sat 02:04:58 PM 33.2250 -97.4550 136° Southeast 307 353 10,900  Level FlightAware ADS-B
Sat 02:05:44 PM 33.1800 -97.4020 135° Southeast 308 354 10,900  Level FlightAware ADS-B
Sat 02:06:24 PM 33.1370 -97.3520 136° Southeast 311 358 10,900  Level FlightAware ADS-B
Sat 02:07:06 PM 33.0940 -97.3020 136° Southeast 311 358 10,900  Level FlightAware ADS-B
Sat 02:07:44 PM 33.0570 -97.2590 136° Southeast 284 327 10,900  Level FlightAware ADS-B
Sat 02:08:30 PM 33.0150 -97.2100 136° Southeast 266 306 10,900  Level FlightAware ADS-B
Sat 02:09:10 PM 32.9770 -97.1740 142° Southeast 269 310 10,900  Level FlightAware ADS-B
Sat 02:09:26 PM 32.9580 -97.1700 170° South 273 314 10,900 -321 Level FlightAware ADS-B
Sat 02:10:06 PM 32.9070 -97.1700 180° South 271 312 10,600 -771 Descending FlightAware ADS-B
Sat 02:10:36 PM 32.8690 -97.1700 180° South 268 308 10,000 -1,219 Descending FlightAware ADS-B
Sat 02:11:10 PM 32.8270 -97.1700 180° South 263 303 9,300 -1,320 Descending FlightAware ADS-B
Sat 02:11:26 PM 32.8070 -97.1690 178° South 266 306 8,900 -1,385 Descending FlightAware ADS-B
Sat 02:11:49 PM 32.7790 -97.1690 180° South 267 307 8,400 -1,224 Descending FlightAware ADS-B
Sat 02:12:15 PM 32.7460 -97.1690 180° South 262 302 7,900 -1,091 Descending FlightAware ADS-B
Sat 02:12:33 PM 32.7250 -97.1680 178° South 258 297 7,600 -1,116 Descending FlightAware ADS-B
Sat 02:12:58 PM 32.6970 -97.1680 180° South 256 295 7,100 -1,241 Descending FlightAware ADS-B
Sat 02:13:31 PM 32.6570 -97.1670 179° South 252 290 6,400 -1,116 Descending FlightAware ADS-B
Sat 02:13:41 PM 32.6460 -97.1650 171° South 245 282 6,300 -1,000 Descending FlightAware ADS-B
Sat 02:14:01 PM 32.6300 -97.1490 140° Southeast 215 247 5,900 -968 Descending FlightAware ADS-B
Sat 02:14:12 PM 32.6260 -97.1380 113° Southeast 199 229 5,800 -439 Descending FlightAware ADS-B
Sat 02:14:42 PM 32.6260 -97.1110 90° East 182 209 5,600 -828 Descending FlightAware ADS-B
Sat 02:15:10 PM 32.6270 -97.0800 88° East 178 205 5,000 -1,333 Descending FlightAware ADS-B
Sat 02:15:18 PM 32.6290 -97.0730 71° East 176 203 4,800 -1,125 Descending FlightAware ADS-B
Sat 02:15:26 PM 32.6330 -97.0670 52° Northeast 176 203 4,700 -1,250 Descending FlightAware ADS-B
Sat 02:15:42 PM 32.6450 -97.0600 26° Northeast 175 201 4,300 -1,313 Descending FlightAware ADS-B
Sat 02:15:58 PM 32.6580 -97.0560 15° North 181 208 4,000 -1,286 Descending FlightAware ADS-B
Sat 02:16:10 PM 32.6680 -97.0560 360° North 185 213 3,700 -1,091 Descending FlightAware ADS-B
Sat 02:16:20 PM 32.6770 -97.0560 360° North 181 208 3,600 -522 Descending FlightAware ADS-B
Sat 02:17:42 PM 32.7430 -97.0560 360° North 176 203 2,900 -517 Descending FlightAware ADS-B
Sat 02:18:16 PM 32.7680 -97.0560 360° North 177 204 2,600 -828 Descending FlightAware ADS-B
Sat 02:18:40 PM 32.7910 -97.0550 North 175 201 2,100 -923 Descending FlightAware ADS-B
Sat 02:19:21 PM 32.8200 -97.0550 360° North 162 186 1,600 -706 Descending FlightAware ADS-B
Sat 02:20:22 PM 32.8620 -97.0550 360° North 150 173 900 -488 Descending FlightAware ADS-B
Sat 02:20:47 PM 32.8770 -97.0550 360° North 150 173 900  Level FlightAware ADS-B

Login

Don't have an account? Register now (free) for customized features, flight alerts, and more!